createdAt,value
2017-11-27T00:00:00.774Z,3.80
2017-11-27T00:01:00.769Z,2.70
2017-11-27T00:02:00.760Z,3.50
2017-11-27T00:03:00.751Z,3.30
2017-11-27T00:04:00.742Z,2.70
2017-11-27T00:05:00.733Z,3.50
2017-11-27T00:06:00.726Z,3.30
2017-11-27T00:07:00.719Z,2.70
2017-11-27T00:08:00.710Z,3.70
2017-11-27T00:09:00.700Z,3.70
2017-11-27T00:10:00.692Z,2.80
2017-11-27T00:11:00.687Z,4.10
2017-11-27T00:12:00.678Z,3.20
2017-11-27T00:13:00.668Z,3.80
2017-11-27T00:14:00.661Z,3.50
2017-11-27T00:15:00.653Z,3.00
2017-11-27T00:16:00.644Z,2.80
2017-11-27T00:17:00.635Z,3.60
2017-11-27T00:18:00.628Z,2.90
2017-11-27T00:19:00.673Z,3.40
2017-11-27T00:20:00.611Z,3.70
2017-11-27T00:21:00.603Z,3.60
2017-11-27T00:22:00.596Z,3.90
2017-11-27T00:23:00.585Z,3.00
2017-11-27T00:24:00.578Z,3.60
2017-11-27T00:25:00.568Z,3.90
2017-11-27T00:26:00.560Z,3.10
2017-11-27T00:27:00.552Z,3.40
2017-11-27T00:28:00.544Z,2.60
2017-11-27T00:29:00.538Z,3.30
2017-11-27T00:30:00.527Z,3.60
2017-11-27T00:31:00.518Z,2.70
2017-11-27T00:32:00.516Z,3.30
2017-11-27T00:33:00.503Z,3.60
2017-11-27T00:34:00.493Z,3.40
2017-11-27T00:35:00.487Z,2.30
2017-11-27T00:36:00.479Z,3.50
2017-11-27T00:37:00.468Z,3.50
2017-11-27T00:38:00.493Z,3.60
2017-11-27T00:39:00.454Z,3.30
2017-11-27T00:40:00.444Z,3.20
2017-11-27T00:41:00.436Z,2.80
2017-11-27T00:42:00.428Z,2.70
2017-11-27T00:43:00.419Z,2.30
2017-11-27T00:44:00.413Z,3.70
2017-11-27T00:45:00.402Z,3.90
2017-11-27T00:46:00.394Z,4.00
2017-11-27T00:47:00.386Z,2.30
2017-11-27T00:48:00.378Z,3.10
2017-11-27T00:49:00.370Z,2.60
2017-11-27T00:50:00.361Z,2.20
2017-11-27T00:51:00.354Z,2.40
2017-11-27T00:52:00.346Z,4.20
2017-11-27T00:53:00.335Z,2.90
2017-11-27T00:54:00.327Z,2.60
2017-11-27T00:55:00.321Z,2.50
2017-11-27T00:56:00.315Z,2.50
2017-11-27T00:57:00.303Z,2.90
2017-11-27T00:58:00.300Z,2.90
2017-11-27T00:59:00.287Z,2.60
2017-11-27T01:00:00.279Z,2.70
2017-11-27T01:01:00.269Z,2.90
2017-11-27T01:02:00.260Z,3.00
2017-11-27T01:03:00.255Z,2.90
2017-11-27T01:04:00.249Z,2.70
2017-11-27T01:05:00.237Z,2.80
2017-11-27T01:06:00.228Z,3.80
2017-11-27T01:07:00.226Z,3.30
2017-11-27T01:08:00.211Z,2.60
2017-11-27T01:09:00.221Z,2.80
2017-11-27T01:10:00.195Z,2.30
2017-11-27T01:11:00.186Z,2.30
2017-11-27T01:12:00.179Z,2.70
2017-11-27T01:13:00.171Z,2.30
2017-11-27T01:14:00.164Z,2.90
2017-11-27T01:15:00.155Z,2.00
2017-11-27T01:16:00.146Z,3.50
2017-11-27T01:17:00.137Z,2.50
2017-11-27T01:18:00.134Z,2.70
2017-11-27T01:19:00.121Z,2.60
2017-11-27T01:20:00.113Z,1.90
2017-11-27T01:21:00.111Z,2.50
2017-11-27T01:22:00.095Z,2.40
2017-11-27T01:23:00.089Z,2.20
2017-11-27T01:24:00.081Z,2.40
2017-11-27T01:25:00.072Z,2.40
2017-11-27T01:26:00.064Z,2.30
2017-11-27T01:27:00.055Z,2.50
2017-11-27T01:28:00.048Z,2.30
2017-11-27T01:29:00.040Z,2.20
2017-11-27T01:30:00.030Z,3.40
2017-11-27T01:31:00.023Z,2.70
2017-11-27T01:32:00.017Z,2.60
2017-11-27T01:33:00.007Z,2.10
2017-11-27T01:33:59.998Z,2.50
2017-11-27T01:34:59.991Z,2.30
2017-11-27T01:35:59.982Z,2.20
2017-11-27T01:36:59.982Z,2.80
2017-11-27T01:37:59.971Z,2.50
2017-11-27T01:38:59.957Z,2.20
2017-11-27T01:39:59.949Z,2.30
2017-11-27T01:40:59.942Z,2.60
2017-11-27T01:41:59.933Z,2.30
2017-11-27T01:42:59.926Z,2.00
2017-11-27T01:43:59.918Z,1.70
2017-11-27T01:44:59.907Z,2.10
2017-11-27T01:45:59.900Z,3.00
2017-11-27T01:46:59.892Z,2.40
2017-11-27T01:47:59.884Z,1.90
2017-11-27T01:48:59.875Z,2.60
2017-11-27T01:49:59.867Z,2.50
2017-11-27T01:50:59.860Z,3.40
2017-11-27T01:51:59.852Z,2.30
2017-11-27T01:52:59.842Z,2.60
2017-11-27T01:53:59.835Z,3.10
2017-11-27T01:54:59.826Z,2.40
2017-11-27T01:55:59.822Z,2.20
2017-11-27T01:56:59.810Z,2.50
2017-11-27T01:57:59.803Z,2.00
2017-11-27T01:58:59.794Z,2.20
2017-11-27T01:59:59.790Z,1.80
2017-11-27T02:00:59.783Z,3.20
2017-11-27T02:01:59.772Z,1.70
2017-11-27T02:02:59.765Z,2.40
2017-11-27T02:03:59.755Z,2.00
2017-11-27T02:04:59.745Z,3.40
2017-11-27T02:05:59.735Z,2.70
2017-11-27T02:06:59.729Z,2.00
2017-11-27T02:07:59.722Z,2.50
2017-11-27T02:08:59.712Z,2.90
2017-11-27T02:09:59.706Z,2.20
2017-11-27T02:10:59.697Z,2.60
2017-11-27T02:11:59.689Z,2.30
2017-11-27T02:12:59.680Z,2.40
2017-11-27T02:13:59.672Z,2.70
2017-11-27T02:14:59.665Z,2.40
2017-11-27T02:15:59.657Z,2.30
2017-11-27T02:16:59.647Z,2.70
2017-11-27T02:17:59.641Z,1.70
2017-11-27T02:18:59.630Z,2.80
2017-11-27T02:19:59.623Z,2.20
2017-11-27T02:20:59.613Z,3.10
2017-11-27T02:21:59.605Z,2.60
2017-11-27T02:22:59.599Z,2.80
2017-11-27T02:23:59.604Z,2.20
2017-11-27T02:24:59.582Z,2.60
2017-11-27T02:25:59.576Z,2.40
2017-11-27T02:26:59.567Z,2.70
2017-11-27T02:27:59.559Z,2.50
2017-11-27T02:28:59.550Z,2.10
2017-11-27T02:29:59.543Z,2.50
2017-11-27T02:30:59.533Z,2.00
2017-11-27T02:31:59.526Z,2.40
2017-11-27T02:32:59.518Z,2.00
2017-11-27T02:33:59.513Z,2.60
2017-11-27T02:34:59.504Z,1.90
2017-11-27T02:35:59.493Z,2.60
2017-11-27T02:36:59.485Z,1.60
2017-11-27T02:37:59.482Z,2.00
2017-11-27T02:38:59.479Z,2.10
2017-11-27T02:39:59.463Z,2.50
2017-11-27T02:40:59.452Z,2.80
2017-11-27T02:41:59.445Z,2.10
2017-11-27T02:42:59.436Z,2.60
2017-11-27T02:43:59.431Z,2.10
2017-11-27T02:44:59.420Z,2.70
2017-11-27T02:45:59.413Z,2.70
2017-11-27T02:46:59.406Z,3.00
2017-11-27T02:47:59.398Z,2.40
2017-11-27T02:48:59.388Z,3.40
2017-11-27T02:49:59.381Z,2.60
2017-11-27T02:50:59.376Z,2.80
2017-11-27T02:51:59.365Z,2.90
2017-11-27T02:52:59.358Z,2.80
2017-11-27T02:53:59.350Z,2.70
2017-11-27T02:54:59.342Z,2.60
2017-11-27T02:55:59.333Z,2.70
2017-11-27T02:56:59.324Z,2.80
2017-11-27T02:57:59.316Z,2.70
2017-11-27T02:58:59.308Z,2.80
2017-11-27T02:59:59.301Z,2.80
2017-11-27T03:00:59.292Z,2.00
2017-11-27T03:01:59.288Z,2.90
2017-11-27T03:02:59.279Z,2.30
2017-11-27T03:03:59.268Z,2.60
2017-11-27T03:04:59.259Z,3.60
2017-11-27T03:05:59.254Z,2.30
2017-11-27T03:06:59.244Z,2.20
2017-11-27T03:07:59.237Z,2.20
2017-11-27T03:08:59.230Z,2.60
2017-11-27T03:09:59.222Z,2.30
2017-11-27T03:10:59.212Z,2.40
2017-11-27T03:11:59.205Z,2.10
2017-11-27T03:12:59.199Z,2.50
2017-11-27T03:13:59.189Z,2.00
2017-11-27T03:14:59.182Z,2.20
2017-11-27T03:15:59.179Z,2.90
2017-11-27T03:16:59.166Z,1.70
2017-11-27T03:17:59.159Z,2.70
2017-11-27T03:18:59.149Z,2.50
2017-11-27T03:19:59.144Z,2.40
2017-11-27T03:20:59.135Z,2.80
2017-11-27T03:21:59.128Z,2.40
2017-11-27T03:22:59.119Z,2.40
2017-11-27T03:23:59.112Z,2.60
2017-11-27T03:24:59.104Z,1.90
2017-11-27T03:25:59.095Z,1.60
2017-11-27T03:26:59.089Z,1.90
2017-11-27T03:27:59.085Z,2.00
2017-11-27T03:28:59.072Z,1.80
2017-11-27T03:29:59.066Z,2.20
2017-11-27T03:30:59.065Z,2.30
2017-11-27T03:31:59.050Z,2.20
2017-11-27T03:32:59.042Z,1.90
2017-11-27T03:33:59.037Z,2.50
2017-11-27T03:34:59.026Z,2.50
2017-11-27T03:35:59.020Z,2.80
2017-11-27T03:36:59.011Z,2.20
2017-11-27T03:37:59.002Z,2.30
2017-11-27T03:38:58.996Z,2.10
2017-11-27T03:39:58.987Z,2.70
2017-11-27T03:40:58.983Z,2.50
2017-11-27T03:41:58.972Z,2.00
2017-11-27T03:42:58.963Z,1.80
2017-11-27T03:43:58.956Z,2.30
2017-11-27T03:44:58.950Z,2.30
2017-11-27T03:45:58.941Z,2.70
2017-11-27T03:46:58.938Z,2.80
2017-11-27T03:47:58.944Z,2.10
2017-11-27T03:48:58.917Z,2.70
2017-11-27T03:49:58.909Z,2.70
2017-11-27T03:50:58.903Z,2.40
2017-11-27T03:51:58.896Z,2.50
2017-11-27T03:52:58.887Z,2.40
2017-11-27T03:53:58.881Z,2.50
2017-11-27T03:54:58.871Z,2.10
2017-11-27T03:55:58.888Z,2.10
2017-11-27T03:56:58.855Z,2.30
2017-11-27T03:57:58.847Z,3.50
2017-11-27T03:58:58.841Z,2.30
2017-11-27T03:59:58.834Z,2.50
2017-11-27T04:00:58.825Z,2.80
2017-11-27T04:01:58.819Z,2.50
2017-11-27T04:02:58.810Z,1.80
2017-11-27T04:03:58.804Z,2.20
2017-11-27T04:04:58.793Z,1.90
2017-11-27T04:05:58.788Z,2.90
2017-11-27T04:06:58.779Z,2.90
2017-11-27T04:07:58.773Z,2.60
2017-11-27T04:08:58.765Z,2.40
2017-11-27T04:09:58.757Z,3.60
2017-11-27T04:10:58.749Z,2.60
2017-11-27T04:11:58.742Z,2.80
2017-11-27T04:12:58.733Z,2.60
2017-11-27T04:13:58.726Z,2.50
2017-11-27T04:14:58.720Z,3.80
2017-11-27T04:15:58.710Z,3.20
2017-11-27T04:16:58.703Z,3.30
2017-11-27T04:17:58.696Z,3.70
2017-11-27T04:18:58.706Z,3.30
2017-11-27T04:19:58.680Z,4.00
2017-11-27T04:20:58.673Z,3.70
2017-11-27T04:21:58.664Z,3.80
2017-11-27T04:22:58.658Z,3.60
2017-11-27T04:23:58.655Z,2.90
2017-11-27T04:24:58.642Z,3.00
2017-11-27T04:25:58.635Z,3.00
2017-11-27T04:26:58.626Z,3.30
2017-11-27T04:27:58.628Z,3.80
2017-11-27T04:28:58.611Z,3.10
2017-11-27T04:29:58.604Z,3.90
2017-11-27T04:30:58.595Z,3.30
2017-11-27T04:31:58.589Z,3.20
2017-11-27T04:32:58.580Z,2.80
2017-11-27T04:33:58.571Z,3.40
2017-11-27T04:34:58.566Z,2.40
2017-11-27T04:35:58.558Z,2.80
2017-11-27T04:36:58.549Z,3.10
2017-11-27T04:37:58.542Z,4.70
2017-11-27T04:38:58.535Z,3.40
2017-11-27T04:39:58.528Z,3.80
2017-11-27T04:40:58.519Z,3.30
2017-11-27T04:41:58.516Z,4.10
2017-11-27T04:42:58.504Z,3.30
2017-11-27T04:43:58.497Z,3.40
2017-11-27T04:44:58.489Z,2.30
2017-11-27T04:45:58.481Z,3.30
2017-11-27T04:46:58.474Z,3.10
2017-11-27T04:47:58.466Z,3.10
2017-11-27T04:48:58.459Z,2.90
2017-11-27T04:49:58.449Z,2.10
2017-11-27T04:50:58.443Z,2.90
2017-11-27T04:51:58.436Z,2.30
2017-11-27T04:52:58.425Z,3.60
2017-11-27T04:53:58.418Z,2.50
2017-11-27T04:54:58.412Z,3.10
2017-11-27T04:55:58.403Z,3.30
2017-11-27T04:56:58.397Z,3.40
2017-11-27T04:57:58.389Z,2.50
2017-11-27T04:58:58.384Z,2.40
2017-11-27T04:59:58.374Z,3.00
2017-11-27T05:00:58.366Z,3.30
2017-11-27T05:01:58.358Z,2.50
2017-11-27T05:02:58.353Z,2.30
2017-11-27T05:03:58.344Z,2.70
2017-11-27T05:04:58.335Z,2.70
2017-11-27T05:05:58.327Z,2.20
2017-11-27T05:06:58.320Z,2.70
2017-11-27T05:07:58.312Z,2.30
2017-11-27T05:08:58.305Z,2.10
2017-11-27T05:09:58.295Z,3.20
2017-11-27T05:10:58.295Z,2.30
2017-11-27T05:11:58.282Z,1.90
2017-11-27T05:12:58.273Z,3.10
2017-11-27T05:13:58.266Z,3.00
2017-11-27T05:14:58.259Z,2.30
2017-11-27T05:15:58.250Z,2.70
2017-11-27T05:16:58.241Z,1.80
2017-11-27T05:17:58.235Z,1.80
2017-11-27T05:18:58.227Z,2.40
2017-11-27T05:19:58.220Z,2.40
2017-11-27T05:20:58.211Z,2.80
2017-11-27T05:21:58.205Z,2.70
2017-11-27T05:22:58.196Z,2.40
2017-11-27T05:23:58.188Z,2.50
2017-11-27T05:24:58.180Z,3.20
2017-11-27T05:25:58.173Z,2.80
2017-11-27T05:26:58.165Z,2.30
2017-11-27T05:27:58.158Z,2.30
2017-11-27T05:28:58.149Z,2.70
2017-11-27T05:29:58.143Z,2.90
2017-11-27T05:30:58.136Z,1.90
2017-11-27T05:31:58.126Z,1.90
2017-11-27T05:32:58.118Z,2.50
2017-11-27T05:33:58.111Z,2.10
2017-11-27T05:34:58.103Z,2.70
2017-11-27T05:35:58.096Z,2.00
2017-11-27T05:36:58.089Z,2.40
2017-11-27T05:37:58.079Z,2.40
2017-11-27T05:38:58.071Z,3.00
2017-11-27T05:39:58.065Z,2.10
2017-11-27T05:40:58.055Z,1.90
2017-11-27T05:41:58.048Z,3.30
2017-11-27T05:42:58.041Z,2.10
2017-11-27T05:43:58.034Z,2.00
2017-11-27T05:44:58.024Z,2.10
2017-11-27T05:45:58.017Z,2.20
2017-11-27T05:46:58.013Z,2.00
2017-11-27T05:47:58.001Z,2.30
2017-11-27T05:48:57.997Z,2.00
2017-11-27T05:49:57.986Z,2.40
2017-11-27T05:50:57.979Z,2.30
2017-11-27T05:51:57.973Z,2.90
2017-11-27T05:52:57.962Z,2.70
2017-11-27T05:53:57.956Z,2.40
2017-11-27T05:54:57.947Z,2.10
2017-11-27T05:55:57.940Z,2.10
2017-11-27T05:56:57.932Z,1.70
2017-11-27T05:57:57.924Z,1.20
2017-11-27T05:58:57.915Z,1.50
2017-11-27T05:59:57.909Z,1.50
2017-11-27T06:00:57.899Z,1.90
2017-11-27T06:01:57.897Z,1.80
2017-11-27T06:02:57.885Z,1.50
2017-11-27T06:03:57.877Z,1.90
2017-11-27T06:04:57.871Z,1.70
2017-11-27T06:05:57.862Z,2.20
2017-11-27T06:06:57.853Z,1.80
2017-11-27T06:07:57.850Z,2.20
2017-11-27T06:08:57.838Z,1.70
2017-11-27T06:09:57.830Z,1.40
2017-11-27T06:10:57.823Z,2.80
2017-11-27T06:11:57.814Z,1.30
2017-11-27T06:12:57.808Z,1.70
2017-11-27T06:13:57.800Z,1.70
2017-11-27T06:14:57.799Z,1.20
2017-11-27T06:15:57.784Z,1.90
2017-11-27T06:16:57.774Z,2.10
2017-11-27T06:17:57.767Z,1.60
2017-11-27T06:18:57.760Z,2.00
2017-11-27T06:19:57.753Z,0.90
2017-11-27T06:20:57.743Z,1.20
2017-11-27T06:21:57.735Z,1.60
2017-11-27T06:22:57.728Z,1.50
2017-11-27T06:23:57.723Z,1.50
2017-11-27T06:24:57.713Z,1.70
2017-11-27T06:25:57.706Z,1.20
2017-11-27T06:26:57.699Z,2.30
2017-11-27T06:27:57.691Z,1.50
2017-11-27T06:28:57.682Z,1.20
2017-11-27T06:29:57.675Z,1.50
2017-11-27T06:30:57.671Z,2.00
2017-11-27T06:31:57.658Z,1.30
2017-11-27T06:32:57.651Z,1.40
2017-11-27T06:33:57.643Z,1.00
2017-11-27T06:34:57.635Z,1.50
2017-11-27T06:35:57.628Z,1.20
2017-11-27T06:36:57.624Z,1.70
2017-11-27T06:37:57.612Z,2.00
2017-11-27T06:38:57.606Z,1.40
2017-11-27T06:39:57.597Z,1.40
2017-11-27T06:40:57.593Z,1.60
2017-11-27T06:41:57.582Z,1.50
2017-11-27T06:42:57.574Z,1.50
2017-11-27T06:43:57.568Z,1.40
2017-11-27T06:44:57.561Z,1.50
2017-11-27T06:45:57.552Z,1.60
2017-11-27T06:46:57.544Z,1.00
2017-11-27T06:47:57.539Z,1.20
2017-11-27T06:48:57.528Z,1.70
2017-11-27T06:49:57.520Z,1.30
2017-11-27T06:50:57.512Z,1.60
2017-11-27T06:51:57.504Z,1.30
2017-11-27T06:52:57.498Z,1.30
2017-11-27T06:53:57.490Z,1.50
2017-11-27T06:54:57.483Z,1.30
2017-11-27T06:55:57.475Z,1.30
2017-11-27T06:56:57.467Z,1.60
2017-11-27T06:57:57.459Z,1.80
2017-11-27T06:58:57.453Z,1.30
2017-11-27T06:59:57.446Z,1.10
2017-11-27T07:00:57.436Z,1.80
2017-11-27T07:01:57.429Z,1.70
2017-11-27T07:02:57.421Z,1.80
2017-11-27T07:03:57.416Z,1.50
2017-11-27T07:04:57.406Z,1.40
2017-11-27T07:05:57.399Z,1.70
2017-11-27T07:06:57.391Z,1.50
2017-11-27T07:07:57.384Z,1.50
2017-11-27T07:08:57.374Z,1.40
2017-11-27T07:09:57.368Z,1.50
2017-11-27T07:10:57.359Z,1.10
2017-11-27T07:11:57.357Z,1.80
2017-11-27T07:12:57.344Z,1.50
2017-11-27T07:13:57.338Z,1.50
2017-11-27T07:14:57.330Z,1.60
2017-11-27T07:15:57.322Z,1.50
2017-11-27T07:16:57.316Z,1.30
2017-11-27T07:17:57.307Z,1.00
2017-11-27T07:18:57.304Z,1.60
2017-11-27T07:19:57.296Z,1.00
2017-11-27T07:20:57.283Z,1.30
2017-11-27T07:21:57.276Z,1.10
2017-11-27T07:22:57.269Z,1.30
2017-11-27T07:23:57.261Z,1.40
2017-11-27T07:24:57.253Z,1.40
2017-11-27T07:25:57.245Z,2.00
2017-11-27T07:26:57.239Z,1.40
2017-11-27T07:27:57.232Z,1.10
2017-11-27T07:28:57.223Z,1.30
2017-11-27T07:29:57.215Z,1.40
2017-11-27T07:30:57.209Z,1.00
2017-11-27T07:31:57.202Z,1.00
2017-11-27T07:32:57.192Z,1.60
2017-11-27T07:33:57.188Z,1.50
2017-11-27T07:34:57.179Z,1.00
2017-11-27T07:35:57.173Z,0.90
2017-11-27T07:36:57.167Z,1.40
2017-11-27T07:37:57.154Z,1.50
2017-11-27T07:38:57.150Z,1.60
2017-11-27T07:39:57.141Z,1.30
2017-11-27T07:40:57.133Z,1.60
2017-11-27T07:41:57.125Z,1.80
2017-11-27T07:42:57.119Z,2.00
2017-11-27T07:43:57.111Z,1.50
2017-11-27T07:44:57.102Z,1.40
2017-11-27T07:45:57.094Z,1.70
2017-11-27T07:46:57.087Z,1.60
2017-11-27T07:47:57.080Z,1.30
2017-11-27T07:48:57.071Z,1.50
2017-11-27T07:49:57.064Z,1.70
2017-11-27T07:50:57.057Z,2.20
2017-11-27T07:51:57.050Z,1.20
2017-11-27T07:52:57.043Z,1.80
2017-11-27T07:53:57.034Z,1.50
2017-11-27T07:54:57.027Z,1.60
2017-11-27T07:55:57.019Z,1.90
2017-11-27T07:56:57.011Z,1.80
2017-11-27T07:57:57.006Z,1.30
2017-11-27T07:58:56.997Z,1.20
2017-11-27T07:59:56.989Z,1.70
2017-11-27T08:00:56.981Z,1.60
2017-11-27T08:01:56.973Z,1.70
2017-11-27T08:02:56.966Z,1.50
2017-11-27T08:03:56.958Z,1.40
2017-11-27T08:04:56.949Z,1.80
2017-11-27T08:05:56.944Z,1.40
2017-11-27T08:06:56.936Z,2.10
2017-11-27T08:07:56.929Z,1.30
2017-11-27T08:08:56.925Z,1.10
2017-11-27T08:09:56.913Z,1.80
2017-11-27T08:10:56.910Z,1.50
2017-11-27T08:11:56.902Z,1.90
2017-11-27T08:12:56.897Z,2.00
2017-11-27T08:13:56.889Z,2.40
2017-11-27T08:14:56.876Z,2.30
2017-11-27T08:15:56.868Z,1.70
2017-11-27T08:16:56.859Z,1.60
2017-11-27T08:17:56.856Z,2.20
2017-11-27T08:18:56.847Z,1.90
2017-11-27T08:19:56.839Z,1.90
2017-11-27T08:20:56.831Z,1.70
2017-11-27T08:21:56.824Z,2.10
2017-11-27T08:22:56.817Z,1.60
2017-11-27T08:23:56.809Z,1.70
2017-11-27T08:24:56.801Z,1.70
2017-11-27T08:25:56.793Z,1.70
2017-11-27T08:26:56.786Z,1.90
2017-11-27T08:27:56.779Z,2.10
2017-11-27T08:28:56.773Z,2.00
2017-11-27T08:29:56.761Z,2.00
2017-11-27T08:30:56.755Z,2.20
2017-11-27T08:31:56.748Z,2.00
2017-11-27T08:32:56.740Z,2.60
2017-11-27T08:33:56.732Z,1.90
2017-11-27T08:34:56.725Z,2.30
2017-11-27T08:35:56.719Z,2.20
2017-11-27T08:36:56.710Z,1.90
2017-11-27T08:37:56.703Z,2.00
2017-11-27T08:38:56.695Z,2.50
2017-11-27T08:39:56.688Z,2.40
2017-11-27T08:40:56.680Z,2.50
2017-11-27T08:41:56.672Z,2.40
2017-11-27T08:42:56.666Z,2.10
2017-11-27T08:43:56.663Z,2.20
2017-11-27T08:44:56.652Z,1.80
2017-11-27T08:45:56.644Z,1.80
2017-11-27T08:46:56.636Z,1.50
2017-11-27T08:47:56.628Z,1.70
2017-11-27T08:48:56.623Z,1.80
2017-11-27T08:49:56.612Z,1.80
2017-11-27T08:50:56.607Z,1.70
2017-11-27T08:51:56.599Z,2.00
2017-11-27T08:52:56.595Z,1.80
2017-11-27T08:53:56.585Z,1.40
2017-11-27T08:54:56.579Z,1.50
2017-11-27T08:55:56.587Z,2.10
2017-11-27T08:56:56.561Z,1.60
2017-11-27T08:57:56.555Z,1.40
2017-11-27T08:58:56.548Z,1.60
2017-11-27T08:59:56.542Z,2.20
2017-11-27T09:00:56.534Z,2.00
2017-11-27T09:01:56.525Z,2.00
2017-11-27T09:02:56.518Z,2.10
2017-11-27T09:03:56.511Z,1.80
2017-11-27T09:04:56.504Z,1.70
2017-11-27T09:05:56.496Z,1.60
2017-11-27T09:06:56.490Z,1.30
2017-11-27T09:07:56.483Z,2.10
2017-11-27T09:08:56.476Z,2.60
2017-11-27T09:09:56.469Z,2.80
2017-11-27T09:10:56.462Z,1.80
2017-11-27T09:11:56.454Z,1.50
2017-11-27T09:12:56.444Z,1.70
2017-11-27T09:13:56.438Z,2.10
2017-11-27T09:14:56.432Z,1.50
2017-11-27T09:15:56.425Z,1.60
2017-11-27T09:16:56.416Z,1.80
2017-11-27T09:17:56.409Z,1.90
2017-11-27T09:18:56.403Z,1.80
2017-11-27T09:19:56.395Z,1.80
2017-11-27T09:20:56.389Z,1.50
2017-11-27T09:21:56.381Z,1.80
2017-11-27T09:22:56.373Z,1.50
2017-11-27T09:23:56.367Z,1.60
2017-11-27T09:24:56.359Z,1.70
2017-11-27T09:25:56.351Z,1.50
2017-11-27T09:26:56.447Z,1.60
2017-11-27T09:27:56.337Z,1.90
2017-11-27T09:28:56.331Z,1.30
2017-11-27T09:29:56.321Z,1.80
2017-11-27T09:30:56.320Z,2.80
2017-11-27T09:31:56.308Z,2.60
2017-11-27T09:32:56.304Z,2.20
2017-11-27T09:33:56.296Z,3.00
2017-11-27T09:34:56.286Z,1.70
2017-11-27T09:35:56.280Z,2.20
2017-11-27T09:36:56.373Z,2.10
2017-11-27T09:37:56.266Z,1.60
2017-11-27T09:38:56.262Z,2.30
2017-11-27T09:39:56.252Z,2.00
2017-11-27T09:40:56.243Z,1.80
2017-11-27T09:41:56.237Z,2.10
2017-11-27T09:42:56.230Z,2.10
2017-11-27T09:43:56.222Z,2.10
2017-11-27T09:44:56.215Z,2.40
2017-11-27T09:45:56.209Z,2.20
2017-11-27T09:46:56.211Z,1.60
2017-11-27T09:47:56.196Z,1.60
2017-11-27T09:48:56.185Z,1.60
2017-11-27T09:49:56.179Z,1.50
2017-11-27T09:50:56.171Z,2.50
2017-11-27T09:51:56.165Z,1.70
2017-11-27T09:52:56.159Z,1.60
2017-11-27T09:53:56.151Z,2.10
2017-11-27T09:54:56.144Z,1.60
2017-11-27T09:55:56.137Z,1.60
2017-11-27T09:56:56.131Z,2.10
2017-11-27T09:57:56.124Z,1.80
2017-11-27T09:58:56.118Z,2.00
2017-11-27T09:59:56.110Z,2.20
2017-11-27T10:00:56.101Z,1.90
2017-11-27T10:01:56.094Z,2.20
2017-11-27T10:02:56.089Z,2.40
2017-11-27T10:03:56.082Z,2.00
2017-11-27T10:04:56.072Z,2.00
2017-11-27T10:05:56.067Z,2.50
2017-11-27T10:06:56.063Z,1.80
2017-11-27T10:07:56.052Z,1.90
2017-11-27T10:08:56.044Z,1.90
2017-11-27T10:09:56.039Z,2.40
2017-11-27T10:10:56.032Z,1.90
2017-11-27T10:11:56.026Z,2.10
2017-11-27T10:12:56.017Z,2.10
2017-11-27T10:13:56.013Z,2.40
2017-11-27T10:14:56.004Z,1.50
2017-11-27T10:15:55.996Z,2.00
2017-11-27T10:16:55.989Z,1.60
2017-11-27T10:17:55.984Z,1.70
2017-11-27T10:18:55.976Z,2.20
2017-11-27T10:19:55.970Z,2.40
2017-11-27T10:20:55.961Z,2.10
2017-11-27T10:21:55.955Z,1.50
2017-11-27T10:22:55.950Z,1.70
2017-11-27T10:23:55.942Z,2.10
2017-11-27T10:24:55.934Z,1.80
2017-11-27T10:25:55.933Z,1.80
2017-11-27T10:26:55.920Z,1.70
2017-11-27T10:27:55.916Z,1.60
2017-11-27T10:28:55.907Z,1.70
2017-11-27T10:29:55.900Z,1.50
2017-11-27T10:30:55.899Z,1.80
2017-11-27T10:31:55.887Z,1.70
2017-11-27T10:32:55.878Z,2.00
2017-11-27T10:33:55.879Z,1.70
2017-11-27T10:34:55.868Z,2.20
2017-11-27T10:35:55.865Z,1.50
2017-11-27T10:36:55.857Z,1.40
2017-11-27T10:37:55.845Z,1.90
2017-11-27T10:38:55.839Z,2.30
2017-11-27T10:39:55.834Z,1.60
2017-11-27T10:40:55.826Z,1.90
2017-11-27T10:41:55.819Z,1.90
2017-11-27T10:42:55.813Z,1.90
2017-11-27T10:43:55.807Z,1.70
2017-11-27T10:44:55.798Z,1.80
2017-11-27T10:45:55.815Z,1.90
2017-11-27T10:46:55.787Z,1.90
2017-11-27T10:47:55.786Z,1.70
2017-11-27T10:48:55.773Z,1.70
2017-11-27T10:49:55.764Z,1.40
2017-11-27T10:50:55.759Z,2.00
2017-11-27T10:51:55.752Z,1.90
2017-11-27T10:52:55.745Z,1.70
2017-11-27T10:53:55.738Z,1.90
2017-11-27T10:54:55.731Z,1.80
2017-11-27T10:55:55.725Z,1.40
2017-11-27T10:56:55.718Z,1.70
2017-11-27T10:57:55.715Z,1.60
2017-11-27T10:58:55.705Z,1.80
2017-11-27T10:59:55.699Z,1.80
2017-11-27T11:00:55.691Z,1.80
2017-11-27T11:01:55.684Z,2.00
2017-11-27T11:02:55.679Z,1.60
2017-11-27T11:03:55.672Z,1.70
2017-11-27T11:04:55.664Z,1.60
2017-11-27T11:05:55.658Z,2.00
2017-11-27T11:06:55.653Z,1.80
2017-11-27T11:07:55.645Z,1.50
2017-11-27T11:08:55.638Z,1.30
2017-11-27T11:09:55.633Z,1.40
2017-11-27T11:10:55.625Z,1.40
2017-11-27T11:11:55.619Z,1.60
2017-11-27T11:12:55.612Z,1.80
2017-11-27T11:13:55.605Z,1.70
2017-11-27T11:14:55.599Z,1.20
2017-11-27T11:15:55.593Z,1.70
2017-11-27T11:16:55.586Z,1.40
2017-11-27T11:17:55.581Z,1.50
2017-11-27T11:18:55.574Z,2.00
2017-11-27T11:19:55.566Z,1.60
2017-11-27T11:20:55.560Z,1.70
2017-11-27T11:21:55.552Z,1.40
2017-11-27T11:22:55.548Z,1.40
2017-11-27T11:23:55.540Z,1.80
2017-11-27T11:24:55.533Z,2.20
2017-11-27T11:25:55.527Z,2.20
2017-11-27T11:26:55.520Z,2.00
2017-11-27T11:27:55.513Z,2.10
2017-11-27T11:28:55.505Z,1.50
2017-11-27T11:29:55.510Z,1.10
2017-11-27T11:30:55.494Z,1.40
2017-11-27T11:31:55.487Z,1.30
2017-11-27T11:32:55.481Z,2.60
2017-11-27T11:33:55.474Z,1.80
2017-11-27T11:34:55.467Z,2.10
2017-11-27T11:35:55.461Z,1.10
2017-11-27T11:36:55.456Z,1.40
2017-11-27T11:37:55.448Z,1.30
2017-11-27T11:38:55.443Z,1.40
2017-11-27T11:39:55.435Z,0.90
2017-11-27T11:40:55.430Z,0.90
2017-11-27T11:41:55.422Z,1.30
2017-11-27T11:42:55.417Z,1.30
2017-11-27T11:43:55.413Z,1.20
2017-11-27T11:44:55.405Z,0.90
2017-11-27T11:45:55.398Z,1.50
2017-11-27T11:46:55.392Z,0.90
2017-11-27T11:47:55.384Z,0.90
2017-11-27T11:48:55.377Z,1.00
2017-11-27T11:49:55.372Z,1.00
2017-11-27T11:50:55.367Z,1.30
2017-11-27T11:51:55.360Z,1.10
2017-11-27T11:52:55.352Z,0.80
2017-11-27T11:53:55.348Z,1.10
2017-11-27T11:54:55.340Z,1.30
2017-11-27T11:55:55.333Z,1.30
2017-11-27T11:56:55.326Z,1.30
2017-11-27T11:57:55.322Z,1.00
2017-11-27T11:58:55.316Z,1.10
2017-11-27T11:59:55.307Z,1.10
2017-11-27T12:00:55.303Z,0.80
2017-11-27T12:01:55.296Z,0.90
2017-11-27T12:02:55.290Z,1.00
2017-11-27T12:03:55.282Z,0.90
2017-11-27T12:04:55.278Z,0.80
2017-11-27T12:05:55.269Z,0.80
2017-11-27T12:06:55.264Z,0.90
2017-11-27T12:07:55.257Z,1.10
2017-11-27T12:08:55.250Z,0.70
2017-11-27T12:09:55.243Z,0.90
2017-11-27T12:10:55.239Z,0.80
2017-11-27T12:11:55.232Z,0.90
2017-11-27T12:12:55.229Z,0.80
2017-11-27T12:13:55.220Z,1.50
2017-11-27T12:14:55.212Z,1.60
2017-11-27T12:15:55.207Z,1.30
2017-11-27T12:16:55.200Z,1.30
2017-11-27T12:17:55.193Z,1.10
2017-11-27T12:18:55.189Z,1.80
2017-11-27T12:19:55.182Z,1.00
2017-11-27T12:20:55.174Z,1.00
2017-11-27T12:21:55.170Z,1.00
2017-11-27T12:22:55.163Z,1.20
2017-11-27T12:23:55.157Z,1.20
2017-11-27T12:24:55.148Z,1.20
2017-11-27T12:25:55.143Z,1.20
2017-11-27T12:26:55.137Z,1.10
2017-11-27T12:27:55.130Z,1.00
2017-11-27T12:28:55.123Z,1.10
2017-11-27T12:29:55.121Z,1.30
2017-11-27T12:30:55.113Z,1.00
2017-11-27T12:31:55.106Z,0.90
2017-11-27T12:32:55.100Z,1.10
2017-11-27T12:33:55.094Z,1.00
2017-11-27T12:34:55.088Z,0.90
2017-11-27T12:35:55.089Z,1.30
2017-11-27T12:36:55.074Z,1.10
2017-11-27T12:37:55.068Z,1.20
2017-11-27T12:38:55.064Z,0.80
2017-11-27T12:39:55.059Z,0.80
2017-11-27T12:40:55.049Z,0.80
2017-11-27T12:41:55.044Z,1.00
2017-11-27T12:42:55.038Z,1.00
2017-11-27T12:43:55.032Z,1.10
2017-11-27T12:44:55.077Z,1.20
2017-11-27T12:45:55.019Z,0.90
2017-11-27T12:46:55.013Z,1.10
2017-11-27T12:47:55.007Z,1.10
2017-11-27T12:48:55.001Z,0.80
2017-11-27T12:49:54.994Z,1.30
2017-11-27T12:50:54.987Z,1.00
2017-11-27T12:51:54.986Z,0.80
2017-11-27T12:52:54.976Z,0.90
2017-11-27T12:53:54.998Z,0.90
2017-11-27T12:54:54.964Z,1.00
2017-11-27T12:55:54.960Z,1.10
2017-11-27T12:56:54.955Z,1.00
2017-11-27T12:57:54.944Z,0.80
2017-11-27T12:58:54.938Z,1.00
2017-11-27T12:59:54.933Z,0.90
2017-11-27T13:00:54.927Z,0.70
2017-11-27T13:01:54.920Z,1.00
2017-11-27T13:02:54.915Z,1.00
2017-11-27T13:03:54.909Z,1.10
2017-11-27T13:04:54.902Z,0.90
2017-11-27T13:05:54.896Z,0.90
2017-11-27T13:06:54.892Z,1.00
2017-11-27T13:07:54.884Z,0.80
2017-11-27T13:08:54.877Z,0.70
2017-11-27T13:09:54.872Z,0.80
2017-11-27T13:10:54.866Z,1.10
2017-11-27T13:11:54.861Z,0.90
2017-11-27T13:12:54.855Z,0.90
2017-11-27T13:13:54.852Z,1.00
2017-11-27T13:14:54.842Z,0.70
2017-11-27T13:15:54.839Z,0.70
2017-11-27T13:16:54.829Z,0.80
2017-11-27T13:17:54.823Z,0.90